sensor_id;sensor_type;location;lat;lon;timestamp;temperature;humidity
65038;DHT22;51605;47.040;15.294;2023-01-29T00:00:08;20.20;56.70
65038;DHT22;51605;47.040;15.294;2023-01-29T00:02:38;20.10;56.60
65038;DHT22;51605;47.040;15.294;2023-01-29T00:05:04;20.10;56.70
65038;DHT22;51605;47.040;15.294;2023-01-29T00:07:31;20.20;56.70
65038;DHT22;51605;47.040;15.294;2023-01-29T00:09:56;20.20;56.70
65038;DHT22;51605;47.040;15.294;2023-01-29T00:12:22;20.20;56.70
65038;DHT22;51605;47.040;15.294;2023-01-29T00:14:48;20.10;56.60
65038;DHT22;51605;47.040;15.294;2023-01-29T00:17:13;20.10;56.60
65038;DHT22;51605;47.040;15.294;2023-01-29T00:19:39;20.20;56.70
65038;DHT22;51605;47.040;15.294;2023-01-29T00:22:04;20.20;56.70
65038;DHT22;51605;47.040;15.294;2023-01-29T00:24:30;20.20;56.70
65038;DHT22;51605;47.040;15.294;2023-01-29T00:26:56;20.20;56.70
65038;DHT22;51605;47.040;15.294;2023-01-29T00:29:21;20.20;56.70
65038;DHT22;51605;47.040;15.294;2023-01-29T00:31:47;20.20;56.70
65038;DHT22;51605;47.040;15.294;2023-01-29T00:34:13;20.20;56.70
65038;DHT22;51605;47.040;15.294;2023-01-29T00:36:38;20.20;56.70
65038;DHT22;51605;47.040;15.294;2023-01-29T00:39:04;20.20;56.70
65038;DHT22;51605;47.040;15.294;2023-01-29T00:41:35;20.20;56.70
65038;DHT22;51605;47.040;15.294;2023-01-29T00:44:19;20.20;56.70
65038;DHT22;51605;47.040;15.294;2023-01-29T00:47:18;20.20;56.70
65038;DHT22;51605;47.040;15.294;2023-01-29T00:49:58;20.20;56.70
65038;DHT22;51605;47.040;15.294;2023-01-29T00:52:24;20.20;56.70
65038;DHT22;51605;47.040;15.294;2023-01-29T00:54:54;20.20;56.70
65038;DHT22;51605;47.040;15.294;2023-01-29T00:57:21;20.20;56.70
65038;DHT22;51605;47.040;15.294;2023-01-29T00:59:47;20.20;56.70
65038;DHT22;51605;47.040;15.294;2023-01-29T01:02:13;20.20;56.70
65038;DHT22;51605;47.040;15.294;2023-01-29T01:04:57;20.20;56.70
65038;DHT22;51605;47.040;15.294;2023-01-29T01:07:23;20.20;56.70
65038;DHT22;51605;47.040;15.294;2023-01-29T01:09:49;20.20;56.70
65038;DHT22;51605;47.040;15.294;2023-01-29T01:12:33;20.20;56.70
65038;DHT22;51605;47.040;15.294;2023-01-29T01:14:59;20.20;56.70
65038;DHT22;51605;47.040;15.294;2023-01-29T01:17:24;20.10;56.70
65038;DHT22;51605;47.040;15.294;2023-01-29T01:19:50;20.10;56.80
65038;DHT22;51605;47.040;15.294;2023-01-29T01:22:16;20.20;56.70
65038;DHT22;51605;47.040;15.294;2023-01-29T01:24:41;20.10;56.70
65038;DHT22;51605;47.040;15.294;2023-01-29T01:27:07;20.10;56.70
65038;DHT22;51605;47.040;15.294;2023-01-29T01:29:33;20.10;56.60
65038;DHT22;51605;47.040;15.294;2023-01-29T01:31:59;20.20;56.70
65038;DHT22;51605;47.040;15.294;2023-01-29T01:34:25;20.20;56.70
65038;DHT22;51605;47.040;15.294;2023-01-29T01:36:52;20.10;56.60
65038;DHT22;51605;47.040;15.294;2023-01-29T01:39:18;20.20;56.70
65038;DHT22;51605;47.040;15.294;2023-01-29T01:41:44;20.10;56.70
65038;DHT22;51605;47.040;15.294;2023-01-29T01:47:14;20.20;56.90
65038;DHT22;51605;47.040;15.294;2023-01-29T01:49:40;20.10;56.70
65038;DHT22;51605;47.040;15.294;2023-01-29T01:52:07;20.10;56.70
65038;DHT22;51605;47.040;15.294;2023-01-29T01:54:33;20.10;57.70
65038;DHT22;51605;47.040;15.294;2023-01-29T01:57:06;20.10;56.70
65038;DHT22;51605;47.040;15.294;2023-01-29T01:59:37;20.10;56.70
65038;DHT22;51605;47.040;15.294;2023-01-29T02:02:05;20.20;56.90
65038;DHT22;51605;47.040;15.294;2023-01-29T02:04:50;20.10;56.70
65038;DHT22;51605;47.040;15.294;2023-01-29T02:07:34;20.20;56.80
65038;DHT22;51605;47.040;15.294;2023-01-29T02:10:19;20.10;56.80
65038;DHT22;51605;47.040;15.294;2023-01-29T02:12:46;20.10;56.90
65038;DHT22;51605;47.040;15.294;2023-01-29T02:15:12;20.10;56.90
65038;DHT22;51605;47.040;15.294;2023-01-29T02:17:38;20.10;56.90
65038;DHT22;51605;47.040;15.294;2023-01-29T02:28:24;20.20;57.10
65038;DHT22;51605;47.040;15.294;2023-01-29T02:41:23;20.20;56.90
65038;DHT22;51605;47.040;15.294;2023-01-29T02:44:05;20.20;57.00
65038;DHT22;51605;47.040;15.294;2023-01-29T02:47:14;20.10;56.90
65038;DHT22;51605;47.040;15.294;2023-01-29T02:58:24;20.10;56.90
65038;DHT22;51605;47.040;15.294;2023-01-29T03:00:52;20.20;57.00
65038;DHT22;51605;47.040;15.294;2023-01-29T03:03:27;20.10;56.80
65038;DHT22;51605;47.040;15.294;2023-01-29T03:06:18;20.10;56.90
65038;DHT22;51605;47.040;15.294;2023-01-29T03:08:53;20.10;57.00
65038;DHT22;51605;47.040;15.294;2023-01-29T03:11:20;20.10;57.00
65038;DHT22;51605;47.040;15.294;2023-01-29T03:13:59;20.20;57.00
65038;DHT22;51605;47.040;15.294;2023-01-29T03:16:38;20.10;56.90
65038;DHT22;51605;47.040;15.294;2023-01-29T03:19:09;20.10;56.90
65038;DHT22;51605;47.040;15.294;2023-01-29T03:21:50;20.20;56.90
65038;DHT22;51605;47.040;15.294;2023-01-29T03:24:48;20.10;56.90
65038;DHT22;51605;47.040;15.294;2023-01-29T03:27:46;20.10;56.80
65038;DHT22;51605;47.040;15.294;2023-01-29T03:30:34;20.10;56.90
65038;DHT22;51605;47.040;15.294;2023-01-29T03:33:22;20.20;56.90
65038;DHT22;51605;47.040;15.294;2023-01-29T03:35:54;20.10;56.80
65038;DHT22;51605;47.040;15.294;2023-01-29T03:38:21;20.20;56.90
65038;DHT22;51605;47.040;15.294;2023-01-29T03:40:52;20.20;57.00
65038;DHT22;51605;47.040;15.294;2023-01-29T03:48:54;20.10;56.90
65038;DHT22;51605;47.040;15.294;2023-01-29T03:51:36;20.10;56.90
65038;DHT22;51605;47.040;15.294;2023-01-29T03:54:19;20.10;56.90
65038;DHT22;51605;47.040;15.294;2023-01-29T03:56:56;20.10;56.80
65038;DHT22;51605;47.040;15.294;2023-01-29T03:59:35;20.10;56.80
65038;DHT22;51605;47.040;15.294;2023-01-29T04:02:12;20.10;56.80
65038;DHT22;51605;47.040;15.294;2023-01-29T04:04:45;20.10;56.80
65038;DHT22;51605;47.040;15.294;2023-01-29T04:07:18;20.20;56.90
65038;DHT22;51605;47.040;15.294;2023-01-29T04:10:11;20.10;56.90
65038;DHT22;51605;47.040;15.294;2023-01-29T04:12:44;20.10;57.00
65038;DHT22;51605;47.040;15.294;2023-01-29T04:15:13;20.20;57.00
65038;DHT22;51605;47.040;15.294;2023-01-29T04:17:42;20.10;56.90
65038;DHT22;51605;47.040;15.294;2023-01-29T04:20:10;20.10;57.00
65038;DHT22;51605;47.040;15.294;2023-01-29T04:22:38;20.10;56.90
65038;DHT22;51605;47.040;15.294;2023-01-29T04:25:09;20.10;56.90
65038;DHT22;51605;47.040;15.294;2023-01-29T04:30:22;20.20;57.00
65038;DHT22;51605;47.040;15.294;2023-01-29T04:42:05;20.10;57.00
65038;DHT22;51605;47.040;15.294;2023-01-29T04:44:36;20.20;57.10
65038;DHT22;51605;47.040;15.294;2023-01-29T04:47:31;20.10;57.00
65038;DHT22;51605;47.040;15.294;2023-01-29T04:50:37;20.10;57.00
65038;DHT22;51605;47.040;15.294;2023-01-29T04:56:14;20.10;56.90
65038;DHT22;51605;47.040;15.294;2023-01-29T04:58:49;20.10;56.90
65038;DHT22;51605;47.040;15.294;2023-01-29T05:01:18;20.10;56.90
65038;DHT22;51605;47.040;15.294;2023-01-29T05:03:48;20.10;56.90
65038;DHT22;51605;47.040;15.294;2023-01-29T05:06:15;20.10;57.00
65038;DHT22;51605;47.040;15.294;2023-01-29T05:08:43;20.20;57.00
65038;DHT22;51605;47.040;15.294;2023-01-29T05:11:10;20.10;56.90
65038;DHT22;51605;47.040;15.294;2023-01-29T05:13:38;20.10;56.90
65038;DHT22;51605;47.040;15.294;2023-01-29T05:16:09;20.10;56.80
65038;DHT22;51605;47.040;15.294;2023-01-29T05:18:37;20.10;56.90
65038;DHT22;51605;47.040;15.294;2023-01-29T05:21:05;20.10;56.90
65038;DHT22;51605;47.040;15.294;2023-01-29T05:23:32;20.10;56.90
65038;DHT22;51605;47.040;15.294;2023-01-29T05:25:58;20.10;56.90
65038;DHT22;51605;47.040;15.294;2023-01-29T05:28:23;20.10;56.90
65038;DHT22;51605;47.040;15.294;2023-01-29T05:30:51;20.20;57.00
65038;DHT22;51605;47.040;15.294;2023-01-29T05:33:18;20.10;56.90
65038;DHT22;51605;47.040;15.294;2023-01-29T05:35:44;20.10;56.90
65038;DHT22;51605;47.040;15.294;2023-01-29T05:38:11;20.10;56.90
65038;DHT22;51605;47.040;15.294;2023-01-29T05:40:37;20.20;56.90
65038;DHT22;51605;47.040;15.294;2023-01-29T05:43:04;20.20;56.80
65038;DHT22;51605;47.040;15.294;2023-01-29T05:45:30;20.20;56.70
65038;DHT22;51605;47.040;15.294;2023-01-29T05:47:57;20.20;56.70
65038;DHT22;51605;47.040;15.294;2023-01-29T05:50:23;20.20;56.70
65038;DHT22;51605;47.040;15.294;2023-01-29T05:52:49;20.20;56.80
65038;DHT22;51605;47.040;15.294;2023-01-29T05:55:19;20.20;56.80
65038;DHT22;51605;47.040;15.294;2023-01-29T05:57:45;20.20;56.70
65038;DHT22;51605;47.040;15.294;2023-01-29T06:00:11;20.20;56.80
65038;DHT22;51605;47.040;15.294;2023-01-29T06:02:37;20.20;56.90
65038;DHT22;51605;47.040;15.294;2023-01-29T06:05:03;20.10;56.70
65038;DHT22;51605;47.040;15.294;2023-01-29T06:07:29;20.20;56.80
65038;DHT22;51605;47.040;15.294;2023-01-29T06:09:54;20.20;56.90
65038;DHT22;51605;47.040;15.294;2023-01-29T06:12:20;20.10;56.70
65038;DHT22;51605;47.040;15.294;2023-01-29T06:14:46;20.20;56.90
65038;DHT22;51605;47.040;15.294;2023-01-29T06:17:11;20.20;56.80
65038;DHT22;51605;47.040;15.294;2023-01-29T06:19:37;20.20;56.80
65038;DHT22;51605;47.040;15.294;2023-01-29T06:22:03;20.20;56.70
65038;DHT22;51605;47.040;15.294;2023-01-29T06:24:29;20.20;56.70
65038;DHT22;51605;47.040;15.294;2023-01-29T06:26:54;20.20;56.70
65038;DHT22;51605;47.040;15.294;2023-01-29T06:29:20;20.20;56.70
65038;DHT22;51605;47.040;15.294;2023-01-29T06:31:46;20.20;56.70
65038;DHT22;51605;47.040;15.294;2023-01-29T06:34:11;20.20;56.70
65038;DHT22;51605;47.040;15.294;2023-01-29T06:36:37;20.20;56.70
65038;DHT22;51605;47.040;15.294;2023-01-29T06:39:03;20.20;56.70
65038;DHT22;51605;47.040;15.294;2023-01-29T06:41:29;20.20;56.70
65038;DHT22;51605;47.040;15.294;2023-01-29T06:43:54;20.20;56.70
65038;DHT22;51605;47.040;15.294;2023-01-29T06:46:20;20.20;56.70
65038;DHT22;51605;47.040;15.294;2023-01-29T06:48:46;20.20;56.70
65038;DHT22;51605;47.040;15.294;2023-01-29T06:51:11;20.20;56.70
65038;DHT22;51605;47.040;15.294;2023-01-29T06:53:38;20.20;56.70
65038;DHT22;51605;47.040;15.294;2023-01-29T06:56:04;20.20;56.80
65038;DHT22;51605;47.040;15.294;2023-01-29T06:58:31;20.20;56.90
65038;DHT22;51605;47.040;15.294;2023-01-29T07:01:14;20.20;56.90
65038;DHT22;51605;47.040;15.294;2023-01-29T07:03:40;20.10;56.80
65038;DHT22;51605;47.040;15.294;2023-01-29T07:06:07;20.20;56.70
65038;DHT22;51605;47.040;15.294;2023-01-29T07:08:39;20.20;56.60
65038;DHT22;51605;47.040;15.294;2023-01-29T07:11:05;20.20;56.20
65038;DHT22;51605;47.040;15.294;2023-01-29T07:13:31;20.20;56.20
65038;DHT22;51605;47.040;15.294;2023-01-29T07:15:58;20.20;55.80
65038;DHT22;51605;47.040;15.294;2023-01-29T07:18:25;20.20;55.70
65038;DHT22;51605;47.040;15.294;2023-01-29T07:20:50;20.20;55.50
65038;DHT22;51605;47.040;15.294;2023-01-29T07:23:16;20.10;55.20
65038;DHT22;51605;47.040;15.294;2023-01-29T07:25:42;20.10;54.90
65038;DHT22;51605;47.040;15.294;2023-01-29T07:28:08;20.10;55.00
65038;DHT22;51605;47.040;15.294;2023-01-29T07:30:34;20.10;55.20
65038;DHT22;51605;47.040;15.294;2023-01-29T07:33:05;20.10;55.20
65038;DHT22;51605;47.040;15.294;2023-01-29T07:35:34;20.10;55.30
65038;DHT22;51605;47.040;15.294;2023-01-29T07:38:00;20.10;55.30
65038;DHT22;51605;47.040;15.294;2023-01-29T07:40:25;20.10;55.40
65038;DHT22;51605;47.040;15.294;2023-01-29T07:42:59;20.20;55.50
65038;DHT22;51605;47.040;15.294;2023-01-29T07:45:26;20.10;55.50
65038;DHT22;51605;47.040;15.294;2023-01-29T07:47:52;20.10;55.50
65038;DHT22;51605;47.040;15.294;2023-01-29T07:50:20;20.10;55.60
65038;DHT22;51605;47.040;15.294;2023-01-29T07:52:45;20.10;55.50
65038;DHT22;51605;47.040;15.294;2023-01-29T07:55:11;20.10;55.60
65038;DHT22;51605;47.040;15.294;2023-01-29T07:57:37;20.10;55.60
65038;DHT22;51605;47.040;15.294;2023-01-29T08:00:02;20.10;55.60
65038;DHT22;51605;47.040;15.294;2023-01-29T08:02:28;20.10;55.70
65038;DHT22;51605;47.040;15.294;2023-01-29T08:04:54;20.10;55.70
65038;DHT22;51605;47.040;15.294;2023-01-29T08:07:19;20.10;55.70
65038;DHT22;51605;47.040;15.294;2023-01-29T08:09:45;20.10;55.70
65038;DHT22;51605;47.040;15.294;2023-01-29T08:12:11;20.10;55.70
65038;DHT22;51605;47.040;15.294;2023-01-29T08:14:36;20.20;55.80
65038;DHT22;51605;47.040;15.294;2023-01-29T08:17:02;20.10;55.70
65038;DHT22;51605;47.040;15.294;2023-01-29T08:19:27;20.10;55.80
65038;DHT22;51605;47.040;15.294;2023-01-29T08:21:53;20.10;55.80
65038;DHT22;51605;47.040;15.294;2023-01-29T08:24:19;20.10;55.90
65038;DHT22;51605;47.040;15.294;2023-01-29T08:26:44;20.10;55.90
65038;DHT22;51605;47.040;15.294;2023-01-29T08:29:10;20.10;56.00
65038;DHT22;51605;47.040;15.294;2023-01-29T08:31:36;20.10;56.00
65038;DHT22;51605;47.040;15.294;2023-01-29T08:34:02;20.10;56.10
65038;DHT22;51605;47.040;15.294;2023-01-29T08:36:28;20.10;56.10
65038;DHT22;51605;47.040;15.294;2023-01-29T08:38:53;20.10;56.10
65038;DHT22;51605;47.040;15.294;2023-01-29T08:41:19;20.10;56.10
65038;DHT22;51605;47.040;15.294;2023-01-29T08:43:44;20.10;56.00
65038;DHT22;51605;47.040;15.294;2023-01-29T08:46:11;20.10;56.20
65038;DHT22;51605;47.040;15.294;2023-01-29T08:48:37;20.10;56.10
65038;DHT22;51605;47.040;15.294;2023-01-29T08:51:02;20.10;56.10
65038;DHT22;51605;47.040;15.294;2023-01-29T08:53:29;20.10;56.20
65038;DHT22;51605;47.040;15.294;2023-01-29T08:55:55;20.10;56.20
65038;DHT22;51605;47.040;15.294;2023-01-29T08:58:20;20.10;56.20
65038;DHT22;51605;47.040;15.294;2023-01-29T09:00:46;20.10;56.20
65038;DHT22;51605;47.040;15.294;2023-01-29T09:03:12;20.10;56.30
65038;DHT22;51605;47.040;15.294;2023-01-29T09:05:38;20.10;56.30
65038;DHT22;51605;47.040;15.294;2023-01-29T09:08:05;20.10;56.20
65038;DHT22;51605;47.040;15.294;2023-01-29T09:10:31;20.10;56.20
65038;DHT22;51605;47.040;15.294;2023-01-29T09:12:57;20.10;56.30
65038;DHT22;51605;47.040;15.294;2023-01-29T09:15:23;20.10;56.20
65038;DHT22;51605;47.040;15.294;2023-01-29T09:17:48;20.10;56.30
65038;DHT22;51605;47.040;15.294;2023-01-29T09:20:15;20.10;56.20
65038;DHT22;51605;47.040;15.294;2023-01-29T09:22:41;20.20;56.40
65038;DHT22;51605;47.040;15.294;2023-01-29T09:25:07;20.10;56.30
65038;DHT22;51605;47.040;15.294;2023-01-29T09:27:33;20.10;56.30
65038;DHT22;51605;47.040;15.294;2023-01-29T09:29:58;20.10;56.20
65038;DHT22;51605;47.040;15.294;2023-01-29T09:32:24;20.20;56.20
65038;DHT22;51605;47.040;15.294;2023-01-29T09:34:50;20.10;56.20
65038;DHT22;51605;47.040;15.294;2023-01-29T09:37:15;20.10;56.20
65038;DHT22;51605;47.040;15.294;2023-01-29T09:39:47;20.10;56.20
65038;DHT22;51605;47.040;15.294;2023-01-29T09:44:54;20.10;56.30
65038;DHT22;51605;47.040;15.294;2023-01-29T09:47:24;20.10;56.30
65038;DHT22;51605;47.040;15.294;2023-01-29T09:49:58;20.10;56.30
65038;DHT22;51605;47.040;15.294;2023-01-29T10:00:19;20.10;56.40
65038;DHT22;51605;47.040;15.294;2023-01-29T10:11:28;20.10;56.50
65038;DHT22;51605;47.040;15.294;2023-01-29T10:19:40;20.10;56.40
65038;DHT22;51605;47.040;15.294;2023-01-29T10:25:15;20.10;56.60
65038;DHT22;51605;47.040;15.294;2023-01-29T10:27:53;20.10;56.50
65038;DHT22;51605;47.040;15.294;2023-01-29T10:30:28;20.10;56.60
65038;DHT22;51605;47.040;15.294;2023-01-29T10:33:00;20.10;56.60
65038;DHT22;51605;47.040;15.294;2023-01-29T10:35:31;20.10;56.60
65038;DHT22;51605;47.040;15.294;2023-01-29T10:38:10;20.10;56.60
65038;DHT22;51605;47.040;15.294;2023-01-29T10:40:45;20.10;56.60
65038;DHT22;51605;47.040;15.294;2023-01-29T10:43:28;20.10;56.60
65038;DHT22;51605;47.040;15.294;2023-01-29T10:49:17;20.10;56.60
65038;DHT22;51605;47.040;15.294;2023-01-29T10:54:50;20.10;56.50
65038;DHT22;51605;47.040;15.294;2023-01-29T10:57:46;20.10;56.70
65038;DHT22;51605;47.040;15.294;2023-01-29T11:00:21;20.10;56.60
65038;DHT22;51605;47.040;15.294;2023-01-29T11:02:49;20.10;56.50
65038;DHT22;51605;47.040;15.294;2023-01-29T11:08:07;20.10;56.50
65038;DHT22;51605;47.040;15.294;2023-01-29T11:11:12;20.10;56.60
65038;DHT22;51605;47.040;15.294;2023-01-29T11:13:37;20.10;56.60
65038;DHT22;51605;47.040;15.294;2023-01-29T11:16:05;20.10;56.60
65038;DHT22;51605;47.040;15.294;2023-01-29T11:18:52;20.20;56.60
65038;DHT22;51605;47.040;15.294;2023-01-29T11:21:18;20.10;56.60
65038;DHT22;51605;47.040;15.294;2023-01-29T11:23:43;20.10;56.60
65038;DHT22;51605;47.040;15.294;2023-01-29T11:26:12;20.10;56.60
65038;DHT22;51605;47.040;15.294;2023-01-29T11:28:46;20.10;56.60
65038;DHT22;51605;47.040;15.294;2023-01-29T11:31:34;20.10;56.60
65038;DHT22;51605;47.040;15.294;2023-01-29T11:34:15;20.10;56.60
65038;DHT22;51605;47.040;15.294;2023-01-29T11:36:42;20.10;56.60
65038;DHT22;51605;47.040;15.294;2023-01-29T11:39:21;20.10;56.60
65038;DHT22;51605;47.040;15.294;2023-01-29T11:42:00;20.10;56.60
65038;DHT22;51605;47.040;15.294;2023-01-29T11:46:55;20.10;56.60
65038;DHT22;51605;47.040;15.294;2023-01-29T11:49:29;20.10;56.60
65038;DHT22;51605;47.040;15.294;2023-01-29T11:51:56;20.10;56.40
65038;DHT22;51605;47.040;15.294;2023-01-29T11:54:28;20.10;56.50
65038;DHT22;51605;47.040;15.294;2023-01-29T11:56:55;20.10;56.60
65038;DHT22;51605;47.040;15.294;2023-01-29T11:59:41;20.10;56.60
65038;DHT22;51605;47.040;15.294;2023-01-29T12:02:36;20.10;56.60
65038;DHT22;51605;47.040;15.294;2023-01-29T12:07:45;20.10;56.60
65038;DHT22;51605;47.040;15.294;2023-01-29T12:10:38;20.10;56.60
65038;DHT22;51605;47.040;15.294;2023-01-29T12:15:31;20.10;56.60
65038;DHT22;51605;47.040;15.294;2023-01-29T12:20:32;20.10;56.60
65038;DHT22;51605;47.040;15.294;2023-01-29T12:23:21;20.10;56.60
65038;DHT22;51605;47.040;15.294;2023-01-29T12:26:01;20.10;56.70
65038;DHT22;51605;47.040;15.294;2023-01-29T12:34:05;20.10;56.60
65038;DHT22;51605;47.040;15.294;2023-01-29T12:36:51;20.10;56.70
65038;DHT22;51605;47.040;15.294;2023-01-29T12:39:19;20.10;56.60
65038;DHT22;51605;47.040;15.294;2023-01-29T12:42:01;20.10;56.60
65038;DHT22;51605;47.040;15.294;2023-01-29T12:44:34;20.10;57.50
65038;DHT22;51605;47.040;15.294;2023-01-29T12:47:10;20.10;56.60
65038;DHT22;51605;47.040;15.294;2023-01-29T12:49:38;20.10;56.60
65038;DHT22;51605;47.040;15.294;2023-01-29T12:52:16;20.10;56.60
65038;DHT22;51605;47.040;15.294;2023-01-29T12:54:47;20.10;56.70
65038;DHT22;51605;47.040;15.294;2023-01-29T12:57:39;20.10;56.70
65038;DHT22;51605;47.040;15.294;2023-01-29T13:00:13;20.10;56.90
65038;DHT22;51605;47.040;15.294;2023-01-29T13:08:07;20.10;56.70
65038;DHT22;51605;47.040;15.294;2023-01-29T13:10:37;20.10;56.80
65038;DHT22;51605;47.040;15.294;2023-01-29T13:13:14;20.10;56.70
65038;DHT22;51605;47.040;15.294;2023-01-29T13:15:42;20.10;56.80
65038;DHT22;51605;47.040;15.294;2023-01-29T13:18:32;20.10;56.80
65038;DHT22;51605;47.040;15.294;2023-01-29T13:20:58;20.10;56.80
65038;DHT22;51605;47.040;15.294;2023-01-29T13:23:38;20.10;56.80
65038;DHT22;51605;47.040;15.294;2023-01-29T13:26:05;20.10;56.80
65038;DHT22;51605;47.040;15.294;2023-01-29T13:28:31;20.10;56.80
65038;DHT22;51605;47.040;15.294;2023-01-29T13:31:17;20.10;56.70
65038;DHT22;51605;47.040;15.294;2023-01-29T13:34:13;20.10;56.70
65038;DHT22;51605;47.040;15.294;2023-01-29T13:36:45;20.10;56.70
65038;DHT22;51605;47.040;15.294;2023-01-29T13:39:24;20.10;56.70
65038;DHT22;51605;47.040;15.294;2023-01-29T13:41:52;20.10;56.70
65038;DHT22;51605;47.040;15.294;2023-01-29T13:44:38;20.10;56.80
65038;DHT22;51605;47.040;15.294;2023-01-29T13:47:09;20.10;56.80
65038;DHT22;51605;47.040;15.294;2023-01-29T13:49:43;20.10;56.80
65038;DHT22;51605;47.040;15.294;2023-01-29T13:52:35;20.10;56.80
65038;DHT22;51605;47.040;15.294;2023-01-29T13:55:07;20.10;56.80
65038;DHT22;51605;47.040;15.294;2023-01-29T14:08:03;20.10;56.90
65038;DHT22;51605;47.040;15.294;2023-01-29T14:10:37;20.10;56.90
65038;DHT22;51605;47.040;15.294;2023-01-29T14:17:56;20.10;56.70
65038;DHT22;51605;47.040;15.294;2023-01-29T14:20:29;20.10;56.80
65038;DHT22;51605;47.040;15.294;2023-01-29T14:22:58;20.10;56.80
65038;DHT22;51605;47.040;15.294;2023-01-29T14:25:32;20.10;56.80
65038;DHT22;51605;47.040;15.294;2023-01-29T14:28:00;20.10;56.70
65038;DHT22;51605;47.040;15.294;2023-01-29T14:30:30;20.10;56.60
65038;DHT22;51605;47.040;15.294;2023-01-29T14:32:57;20.10;56.60
65038;DHT22;51605;47.040;15.294;2023-01-29T14:35:27;20.10;56.60
65038;DHT22;51605;47.040;15.294;2023-01-29T14:37:58;20.10;56.60
65038;DHT22;51605;47.040;15.294;2023-01-29T14:40:26;20.10;56.60
65038;DHT22;51605;47.040;15.294;2023-01-29T14:43:04;20.10;56.50
65038;DHT22;51605;47.040;15.294;2023-01-29T14:45:33;20.10;56.50
65038;DHT22;51605;47.040;15.294;2023-01-29T14:56:10;20.10;56.50
65038;DHT22;51605;47.040;15.294;2023-01-29T14:58:46;20.10;56.50
65038;DHT22;51605;47.040;15.294;2023-01-29T15:01:36;20.10;56.40
65038;DHT22;51605;47.040;15.294;2023-01-29T15:04:14;20.10;56.50
65038;DHT22;51605;47.040;15.294;2023-01-29T15:06:49;20.10;56.50
65038;DHT22;51605;47.040;15.294;2023-01-29T15:17:56;20.10;56.60
65038;DHT22;51605;47.040;15.294;2023-01-29T15:20:42;20.10;56.50
65038;DHT22;51605;47.040;15.294;2023-01-29T15:23:25;20.10;56.60
65038;DHT22;51605;47.040;15.294;2023-01-29T15:25:54;20.00;56.60
65038;DHT22;51605;47.040;15.294;2023-01-29T15:28:21;20.10;56.70
65038;DHT22;51605;47.040;15.294;2023-01-29T15:30:55;20.00;56.60
65038;DHT22;51605;47.040;15.294;2023-01-29T15:33:21;20.00;56.60
65038;DHT22;51605;47.040;15.294;2023-01-29T15:35:48;20.10;56.60
65038;DHT22;51605;47.040;15.294;2023-01-29T15:38:19;20.10;56.60
65038;DHT22;51605;47.040;15.294;2023-01-29T15:41:02;20.10;56.60
65038;DHT22;51605;47.040;15.294;2023-01-29T15:43:36;20.10;56.60
65038;DHT22;51605;47.040;15.294;2023-01-29T15:46:06;20.10;56.60
65038;DHT22;51605;47.040;15.294;2023-01-29T15:48:39;20.10;56.60
65038;DHT22;51605;47.040;15.294;2023-01-29T15:51:14;20.10;56.50
65038;DHT22;51605;47.040;15.294;2023-01-29T15:53:44;20.10;56.40
65038;DHT22;51605;47.040;15.294;2023-01-29T15:56:16;20.10;56.40
65038;DHT22;51605;47.040;15.294;2023-01-29T15:58:47;20.00;56.30
65038;DHT22;51605;47.040;15.294;2023-01-29T16:01:13;20.00;56.20
65038;DHT22;51605;47.040;15.294;2023-01-29T16:03:39;20.00;55.90
65038;DHT22;51605;47.040;15.294;2023-01-29T16:06:05;20.00;55.90
65038;DHT22;51605;47.040;15.294;2023-01-29T16:08:33;20.00;55.50
65038;DHT22;51605;47.040;15.294;2023-01-29T16:11:02;20.00;55.20
65038;DHT22;51605;47.040;15.294;2023-01-29T16:13:31;20.10;55.20
65038;DHT22;51605;47.040;15.294;2023-01-29T16:18:42;20.00;55.10
65038;DHT22;51605;47.040;15.294;2023-01-29T16:24:08;20.00;55.40
65038;DHT22;51605;47.040;15.294;2023-01-29T16:26:38;20.00;55.40
65038;DHT22;51605;47.040;15.294;2023-01-29T16:29:09;20.00;55.40
65038;DHT22;51605;47.040;15.294;2023-01-29T16:31:37;20.00;55.40
65038;DHT22;51605;47.040;15.294;2023-01-29T16:34:09;20.00;55.40
65038;DHT22;51605;47.040;15.294;2023-01-29T16:36:44;20.00;55.50
65038;DHT22;51605;47.040;15.294;2023-01-29T16:39:27;20.00;55.60
65038;DHT22;51605;47.040;15.294;2023-01-29T16:44:36;20.00;55.60
65038;DHT22;51605;47.040;15.294;2023-01-29T16:49:59;20.10;55.70
65038;DHT22;51605;47.040;15.294;2023-01-29T16:52:30;20.10;55.60
65038;DHT22;51605;47.040;15.294;2023-01-29T16:55:17;20.10;55.60
65038;DHT22;51605;47.040;15.294;2023-01-29T16:57:48;20.10;55.70
65038;DHT22;51605;47.040;15.294;2023-01-29T17:00:22;20.10;55.70
65038;DHT22;51605;47.040;15.294;2023-01-29T17:02:50;20.00;55.70
65038;DHT22;51605;47.040;15.294;2023-01-29T17:05:22;20.10;55.70
65038;DHT22;51605;47.040;15.294;2023-01-29T17:07:50;20.10;55.70
65038;DHT22;51605;47.040;15.294;2023-01-29T17:10:20;20.10;55.70
65038;DHT22;51605;47.040;15.294;2023-01-29T17:13:01;20.10;55.70
65038;DHT22;51605;47.040;15.294;2023-01-29T17:17:53;20.10;55.80
65038;DHT22;51605;47.040;15.294;2023-01-29T17:20:19;20.10;55.80
65038;DHT22;51605;47.040;15.294;2023-01-29T17:22:45;20.10;55.80
65038;DHT22;51605;47.040;15.294;2023-01-29T17:25:14;20.00;55.90
65038;DHT22;51605;47.040;15.294;2023-01-29T17:27:41;20.00;55.90
65038;DHT22;51605;47.040;15.294;2023-01-29T17:30:19;20.00;55.90
65038;DHT22;51605;47.040;15.294;2023-01-29T17:32:45;20.00;55.90
65038;DHT22;51605;47.040;15.294;2023-01-29T17:35:12;20.00;55.90
65038;DHT22;51605;47.040;15.294;2023-01-29T17:37:41;20.10;55.90
65038;DHT22;51605;47.040;15.294;2023-01-29T17:42:44;20.00;55.90
65038;DHT22;51605;47.040;15.294;2023-01-29T17:45:11;20.00;55.80
65038;DHT22;51605;47.040;15.294;2023-01-29T17:47:36;20.00;55.70
65038;DHT22;51605;47.040;15.294;2023-01-29T17:50:12;20.00;55.80
65038;DHT22;51605;47.040;15.294;2023-01-29T17:52:40;20.10;55.80
65038;DHT22;51605;47.040;15.294;2023-01-29T17:55:07;20.00;55.80
65038;DHT22;51605;47.040;15.294;2023-01-29T17:57:32;20.00;55.70
65038;DHT22;51605;47.040;15.294;2023-01-29T17:59:58;20.00;55.60
65038;DHT22;51605;47.040;15.294;2023-01-29T18:02:24;20.00;55.70
65038;DHT22;51605;47.040;15.294;2023-01-29T18:04:49;20.00;55.60
65038;DHT22;51605;47.040;15.294;2023-01-29T18:07:15;20.00;55.70
65038;DHT22;51605;47.040;15.294;2023-01-29T18:09:41;20.00;55.60
65038;DHT22;51605;47.040;15.294;2023-01-29T18:12:08;20.00;55.50
65038;DHT22;51605;47.040;15.294;2023-01-29T18:14:35;20.00;55.50